Saint Louis, Missouri
Traffic Map
Current Weather Conditions
Saint Louis, Missouri
Clear
Clear
76°
Feels Like: 76°
Wind Chill: 76° Ceiling: Unl
Heat Index: 76° Visibility: 10mi
Dew Point: 66° Wind: 7mph
Humidity: 71% Direction: 190° (S)
Pressure: 29.93in Gusts: 0mph
Raw Report DataKCPS 261953Z 19006KT 10SM CLR 24/19 A2993 RMK AO2 SLP132 T02440189
Traffic Incident Summary
Active as of:
Severity:
Category:
InformationThere was an issue retrieving the traffic information for this location. Please try a different location or try again shortly.
Advertisements
Track Severe Weather on mobile